CW9533 Torre Faro Messina IT current weather conditions

sailwx.info

Wind from 214 at 0 knots gusting 4

Air temperature 23.3° C
Dewpoint 14.1° C

Last reported at 2015-Jul-02 20:36 UTC.
Time now 2015-Jul-02 21:29 UTC

Location: N 38°16' E 015°39'.
View on Google Maps.

See reports from other nearby stations

  
Tides and Currents Weather Stations Pressure Air Temp Water Temp Dewpoint Dewpoint Depression Visibility Wind Speed Wind Dir Waves Ship Positions
date/time (UTC)wind fromknots sea level pressurealtimeterstation pressurevisibilityair tempwater tempwave heightnotes
2015-Jul-02 20:36 214 0 gusting 4 23.3
2015-Jul-02 20:21 214 1 gusting 5 23.3
2015-Jul-02 20:06 214 2 gusting 4 22.8
2015-Jul-02 19:51 214 22.2
2015-Jul-02 19:36 214 23.3
2015-Jul-02 19:21 214 23.3
2015-Jul-02 19:06 214 23.3
2015-Jul-02 18:51 214 0 gusting 4 23.9
2015-Jul-02 18:36 214 23.9
2015-Jul-02 18:21 214 2 gusting 6 23.9
2015-Jul-02 18:06 214 3 gusting 8 23.9
2015-Jul-02 17:51 214 3 gusting 7 24.4
2015-Jul-02 17:36 214 4 gusting 7 24.4
2015-Jul-02 17:21 214 4 gusting 9 24.4
2015-Jul-02 17:06 215 5 gusting 11 25.0
2015-Jul-02 16:51 213 3 gusting 8 25.0
2015-Jul-02 16:36 213 4 gusting 10 25.0
2015-Jul-02 16:21 215 4 gusting 9 25.0
2015-Jul-02 16:06 217 6 gusting 11 25.0
2015-Jul-02 15:51 218 6 gusting 10 25.0
2015-Jul-02 15:36 211 6 gusting 12 25.0
2015-Jul-02 15:21 219 3 gusting 11 25.6
2015-Jul-02 15:06 213 5 gusting 11 25.6
2015-Jul-02 14:51 217 6 gusting 13 25.6
2015-Jul-02 14:36 213 6 gusting 13 25.6
2015-Jul-02 14:21 221 6 gusting 11 25.6
2015-Jul-02 14:06 211 8 gusting 13 25.6
2015-Jul-02 13:51 219 6 gusting 13 25.6
2015-Jul-02 13:36 216 6 gusting 11 26.1
2015-Jul-02 13:21 222 6 gusting 13 25.6
2015-Jul-02 13:06 214 6 gusting 13 25.6
2015-Jul-02 12:51 220 7 gusting 14 25.6
2015-Jul-02 12:36 209 9 gusting 13 25.6
2015-Jul-02 12:21 223 7 gusting 14 26.1
2015-Jul-02 12:06 234 8 gusting 15 26.1
2015-Jul-02 11:51 232 8 gusting 15 25.6
2015-Jul-02 11:36 203 7 gusting 14 25.6
2015-Jul-02 11:21 202 8 gusting 16 25.6
2015-Jul-02 11:06 234 8 gusting 15 25.6
2015-Jul-02 10:51 208 7 gusting 14 25.6
2015-Jul-02 10:36 209 9 gusting 14 25.6
2015-Jul-02 10:21 214 4 gusting 10 26.1
2015-Jul-02 10:06 205 6 gusting 11 26.1
2015-Jul-02 09:51 171 5 gusting 10 25.6
2015-Jul-02 09:36 138 3 gusting 10 25.6
2015-Jul-02 09:21 094 2 gusting 6 26.1
2015-Jul-02 09:06 074 2 gusting 7 26.1
2015-Jul-02 08:51 063 2 gusting 6 26.1
2015-Jul-02 08:36 063 0 gusting 6 25.6
2015-Jul-02 08:21 063 0 gusting 6 25.6
2015-Jul-02 08:06 063 0 gusting 4 25.0
2015-Jul-02 07:51 063 0 gusting 4 25.0
2015-Jul-02 07:35 063 2 gusting 6 25.0
2015-Jul-02 07:20 063 1 gusting 7 24.4
2015-Jul-02 07:05 063 3 gusting 7 24.4
2015-Jul-02 06:50 063 2 gusting 8 24.4
2015-Jul-02 06:35 063 2 gusting 6 23.9
2015-Jul-02 06:20 063 1 gusting 4 23.9
2015-Jul-02 06:05 063 1 gusting 4 23.9
2015-Jul-02 05:50
2015-Jul-02 05:40